Time;durP1;ratioP1;P1;durP2;ratioP2;P2;SDS_P1;SDS_P2;PMS_P1;PMS_P2;Temp;Humidity;BMP_temperature;BMP_pressure;BME280_temperature;BME280_humidity;BME280_pressure;Samples;Min_cycle;Max_cycle;Signal;HPM_P1;HPM_P2
2022/08/03 04:57:49;;;;;;;;;3.00;3.00;;;;;23.60;56.04;101324.09;2365571;28;74245;-81
2022/08/03 04:59:00;;;;;;;;;3.00;3.00;;;;;23.58;55.66;101326.03;2374451;28;44751;-81
2022/08/03 05:00:11;;;;;;;;;4.00;2.75;;;;;23.58;55.62;101325.19;2382896;28;47062;-81
2022/08/03 05:01:22;;;;;;;;;4.25;3.75;;;;;23.58;55.39;101325.19;2380712;28;45266;-81
2022/08/03 05:02:33;;;;;;;;;3.00;3.00;;;;;23.59;55.87;101321.53;2374580;28;46318;-81
2022/08/03 05:03:44;;;;;;;;;4.50;2.50;;;;;23.59;55.59;101327.75;2372555;28;45444;-82
2022/08/03 05:04:55;;;;;;;;;2.50;1.50;;;;;23.61;56.16;101335.66;2371120;28;47631;-81
2022/08/03 05:06:06;;;;;;;;;5.50;3.00;;;;;23.61;55.91;101330.28;2376156;28;45330;-81
2022/08/03 05:07:18;;;;;;;;;4.00;3.00;;;;;23.62;56.17;101331.16;2377019;28;45335;-81
2022/08/03 05:08:28;;;;;;;;;3.00;3.00;;;;;23.61;55.63;101330.28;2365372;29;45426;-81
2022/08/03 05:09:38;;;;;;;;;5.75;3.50;;;;;23.62;56.06;101337.38;2368064;28;46698;-80
2022/08/03 05:10:49;;;;;;;;;4.25;3.50;;;;;23.63;56.38;101338.25;2383102;28;45565;-81
2022/08/03 05:11:59;;;;;;;;;3.00;3.00;;;;;23.63;56.45;101340.91;2373422;28;48102;-81
2022/08/03 05:13:11;;;;;;;;;3.50;3.00;;;;;23.62;56.13;101332.00;2376390;28;45365;-81
2022/08/03 05:14:22;;;;;;;;;3.50;3.00;;;;;23.62;55.73;101331.16;2383974;28;45448;-81
2022/08/03 05:15:32;;;;;;;;;4.75;3.00;;;;;23.62;56.29;101333.84;2373860;28;45961;-81
2022/08/03 05:16:42;;;;;;;;;2.75;2.75;;;;;23.64;55.86;101339.94;2376563;28;45349;-81
2022/08/03 05:17:53;;;;;;;;;5.50;4.00;;;;;23.64;55.98;101331.88;2383811;28;45419;-80
2022/08/03 05:19:03;;;;;;;;;3.00;3.00;;;;;23.64;55.82;101337.25;2373849;28;46793;-80
2022/08/03 05:20:13;;;;;;;;;4.25;2.00;;;;;23.64;55.89;101345.28;2376714;28;45411;-79
2022/08/03 05:21:24;;;;;;;;;3.00;3.00;;;;;23.64;55.97;101342.63;2383721;28;45375;-80
2022/08/03 05:22:34;;;;;;;;;2.00;2.00;;;;;23.66;55.97;101337.97;2384016;28;45501;-80
2022/08/03 05:23:44;;;;;;;;;2.50;2.50;;;;;23.66;56.25;101340.66;2384042;28;46304;-80
2022/08/03 05:24:55;;;;;;;;;2.75;2.50;;;;;23.64;55.58;101340.78;2384518;28;45274;-79
2022/08/03 05:26:05;;;;;;;;;3.50;3.00;;;;;23.64;55.75;101337.25;2384475;28;46275;-79
2022/08/03 05:27:19;;;;;;;;;2.00;2.00;;;;;23.66;55.81;101343.34;2384108;28;45226;-79
2022/08/03 05:28:29;;;;;;;;;4.00;3.25;;;;;23.65;55.92;101334.47;2385830;28;46448;-79
2022/08/03 05:29:39;;;;;;;;;6.50;3.00;;;;;23.68;55.68;101341.41;2382594;28;45508;-79
2022/08/03 05:30:49;;;;;;;;;3.00;3.00;;;;;23.70;56.16;101339.47;2383659;28;45649;-79
2022/08/03 05:32:00;;;;;;;;;4.50;3.00;;;;;23.72;56.21;101337.50;2384489;28;45468;-80
2022/08/03 05:33:11;;;;;;;;;4.00;3.00;;;;;23.74;55.86;101342.72;2381898;28;47368;-80
2022/08/03 05:34:21;;;;;;;;;6.50;3.25;;;;;23.75;56.13;101342.63;2373905;28;45364;-80
2022/08/03 05:35:33;;;;;;;;;3.00;3.00;;;;;23.77;56.25;101337.97;2376078;28;47002;-80
2022/08/03 05:36:44;;;;;;;;;2.25;2.25;;;;;23.78;56.05;101339.66;2382874;28;45350;-80
2022/08/03 05:37:54;;;;;;;;;3.50;3.50;;;;;23.79;56.55;101344.06;2383445;28;45511;-79
2022/08/03 05:39:04;;;;;;;;;4.00;4.00;;;;;23.82;55.95;101351.88;2383752;28;44779;-80
2022/08/03 05:40:15;;;;;;;;;3.50;3.50;;;;;23.82;55.63;101343.84;2383386;28;45603;-81
2022/08/03 05:41:25;;;;;;;;;3.50;3.50;;;;;23.84;55.79;101351.75;2383811;28;45449;-81
2022/08/03 05:42:36;;;;;;;;;2.25;2.25;;;;;23.85;55.86;101347.25;2383184;28;46452;-81
2022/08/03 05:43:47;;;;;;;;;3.00;2.50;;;;;23.88;56.56;101349.69;2383687;28;45455;-81
2022/08/03 05:44:57;;;;;;;;;3.00;3.00;;;;;23.89;55.77;101348.69;2383520;28;46137;-81
2022/08/03 05:46:07;;;;;;;;;4.00;3.00;;;;;23.91;56.32;101352.09;2383851;28;45253;-81
2022/08/03 05:47:18;;;;;;;;;3.25;3.25;;;;;23.93;55.82;101350.16;2383108;28;46533;-81
2022/08/03 05:48:28;;;;;;;;;3.50;2.75;;;;;23.93;56.00;101344.78;2383722;28;45289;-81
2022/08/03 05:49:39;;;;;;;;;5.25;3.75;;;;;23.96;55.81;101349.03;2383670;28;45495;-80
2022/08/03 05:50:49;;;;;;;;;4.25;4.25;;;;;23.96;55.90;101349.03;2383855;28;45337;-80
2022/08/03 05:51:59;;;;;;;;;4.00;3.00;;;;;23.95;55.85;101348.22;2383569;28;46200;-80
2022/08/03 05:53:10;;;;;;;;;6.00;4.00;;;;;23.95;55.67;101353.59;2373643;28;44761;-80
2022/08/03 05:54:20;;;;;;;;;4.25;3.25;;;;;23.97;55.72;101351.63;2366635;28;48074;-80
2022/08/03 05:55:30;;;;;;;;;5.25;3.00;;;;;24.00;55.76;101345.97;2373351;28;45345;-82
2022/08/03 05:56:41;;;;;;;;;5.00;4.25;;;;;24.02;55.49;101345.88;2375613;28;45496;-82
2022/08/03 05:57:51;;;;;;;;;5.25;3.50;;;;;24.04;55.52;101347.47;2383364;28;45478;-80
2022/08/03 05:59:02;;;;;;;;;4.00;3.00;;;;;24.05;55.59;101346.47;2383280;28;45465;-82
2022/08/03 06:00:13;;;;;;;;;4.00;4.00;;;;;24.09;56.05;101339.03;2384576;28;45188;-79
2022/08/03 06:01:23;;;;;;;;;4.50;4.50;;;;;24.10;55.69;101339.88;2373766;28;46830;-80
2022/08/03 06:02:34;;;;;;;;;4.00;4.00;;;;;24.13;55.84;101344.97;2373367;28;44785;-80
2022/08/03 06:03:45;;;;;;;;;4.50;4.50;;;;;24.15;55.79;101343.88;2365525;28;47411;-80
2022/08/03 06:04:55;;;;;;;;;3.00;3.00;;;;;24.18;55.68;101342.78;2375766;28;45392;-79
2022/08/03 06:06:06;;;;;;;;;3.50;2.75;;;;;24.21;55.40;101341.69;2382708;28;45402;-79
2022/08/03 06:07:16;;;;;;;;;3.25;3.25;;;;;24.21;55.49;101345.22;2383828;28;45397;-80
2022/08/03 06:08:26;;;;;;;;;4.75;3.00;;;;;24.23;55.88;101348.63;2384264;28;46348;-79
2022/08/03 06:09:37;;;;;;;;;6.00;3.75;;;;;24.25;55.85;101349.38;2383624;28;45508;-80
2022/08/03 06:10:48;;;;;;;;;4.50;3.25;;;;;24.27;55.77;101350.09;2373991;28;47962;-79
2022/08/03 06:11:58;;;;;;;;;3.25;3.25;;;;;24.30;55.81;101354.38;2366713;28;45262;-80
2022/08/03 06:13:08;;;;;;;;;8.50;5.50;;;;;24.33;55.60;101350.56;2367045;28;46220;-80
2022/08/03 06:14:19;;;;;;;;;3.50;3.50;;;;;24.34;55.50;101352.31;2376073;28;45297;-81
2022/08/03 06:15:32;;;;;;;;;3.75;3.75;;;;;24.36;55.42;101353.03;2383400;28;45472;-81
2022/08/03 06:16:42;;;;;;;;;3.25;3.00;;;;;24.38;55.80;101353.75;2374232;28;45306;-80
2022/08/03 06:17:52;;;;;;;;;4.50;4.00;;;;;24.37;55.83;101360.13;2367044;28;47233;-80
2022/08/03 06:19:03;;;;;;;;;5.50;4.50;;;;;24.37;55.36;101349.38;2367310;28;45392;-80
2022/08/03 06:20:16;;;;;;;;;3.75;3.75;;;;;24.41;54.71;101363.38;2376607;28;46225;-80
2022/08/03 06:21:26;;;;;;;;;6.25;3.00;;;;;24.43;55.08;101356.91;2384389;28;45419;-79
2022/08/03 06:22:36;;;;;;;;;4.00;4.00;;;;;24.46;55.19;101353.97;2383927;28;46205;-79
2022/08/03 06:23:47;;;;;;;;;6.75;4.50;;;;;24.51;54.95;101364.34;2384250;28;45457;-79
2022/08/03 06:24:57;;;;;;;;;3.00;3.00;;;;;24.53;54.71;101358.81;2382839;28;45359;-79
2022/08/03 06:26:07;;;;;;;;;4.75;4.25;;;;;24.56;54.58;101358.56;2379795;28;45300;-80
2022/08/03 06:27:18;;;;;;;;;3.50;3.25;;;;;24.61;54.11;101353.66;2375446;28;45716;-79
2022/08/03 06:28:28;;;;;;;;;6.50;5.50;;;;;24.64;54.80;101350.72;2374167;28;45354;-79
2022/08/03 06:29:39;;;;;;;;;3.75;3.75;;;;;24.67;54.86;101353.13;2367355;28;47096;-79
2022/08/03 06:30:49;;;;;;;;;5.00;3.00;;;;;24.71;54.49;101354.59;2377112;28;45381;-80
2022/08/03 06:32:00;;;;;;;;;5.75;4.75;;;;;24.73;54.58;101349.94;2384138;28;45159;-79
2022/08/03 06:33:10;;;;;;;;;6.75;4.50;;;;;24.77;54.47;101357.75;2384274;28;44629;-79
2022/08/03 06:34:20;;;;;;;;;3.00;3.00;;;;;24.79;54.22;101350.41;2379981;28;45464;-79
2022/08/03 06:35:32;;;;;;;;;6.00;4.00;;;;;24.82;54.16;101345.63;2381874;28;44720;-80
2022/08/03 06:36:42;;;;;;;;;4.00;4.00;;;;;24.82;53.36;101342.94;2378594;28;45430;-79
2022/08/03 06:37:53;;;;;;;;;4.25;4.25;;;;;24.85;53.57;101349.88;2384124;28;45208;-79
2022/08/03 06:39:03;;;;;;;;;3.50;3.50;;;;;24.90;54.06;101346.78;2383934;28;45487;-79
2022/08/03 06:40:17;;;;;;;;;5.00;3.00;;;;;24.94;53.83;101359.00;2383481;28;45239;-79
2022/08/03 06:41:28;;;;;;;;;4.50;4.00;;;;;24.97;53.79;101357.88;2383966;28;46307;-79
2022/08/03 06:42:38;;;;;;;;;7.00;5.25;;;;;25.00;54.13;101357.66;2383787;28;45319;-79
2022/08/03 06:43:48;;;;;;;;;5.50;4.00;;;;;25.01;54.26;101352.16;2373966;28;47247;-79
2022/08/03 06:44:59;;;;;;;;;6.00;5.00;;;;;25.04;54.15;101353.69;2376363;28;45425;-79
2022/08/03 06:46:09;;;;;;;;;4.75;4.75;;;;;25.07;53.96;101358.81;2384102;28;46165;-79
2022/08/03 06:47:20;;;;;;;;;4.00;4.00;;;;;25.06;53.87;101352.59;2384103;28;44573;-79
2022/08/03 06:48:30;;;;;;;;;6.00;6.00;;;;;25.06;53.76;101344.53;2374016;28;46893;-84
2022/08/03 06:49:41;;;;;;;;;7.50;6.00;;;;;25.06;53.74;101351.75;2367525;28;45220;-80
2022/08/03 06:50:51;;;;;;;;;5.75;4.50;;;;;25.07;54.11;101358.81;2376527;28;47829;-80
2022/08/03 06:52:02;;;;;;;;;4.25;3.50;;;;;25.08;53.54;101354.31;2383548;28;45250;-80
2022/08/03 06:53:12;;;;;;;;;4.50;4.25;;;;;25.10;53.59;101353.19;2383962;28;46322;-80
2022/08/03 06:54:23;;;;;;;;;4.25;4.25;;;;;25.14;53.51;101360.00;2383898;28;44657;-81
2022/08/03 06:55:33;;;;;;;;;7.25;5.00;;;;;25.14;53.83;101354.63;2380590;28;46102;-80
2022/08/03 06:56:44;;;;;;;;;5.25;4.00;;;;;25.14;53.64;101349.25;2382207;28;45465;-81
2022/08/03 06:57:55;;;;;;;;;3.25;3.25;;;;;25.16;53.92;101352.66;2383589;28;46123;-80
2022/08/03 06:59:05;;;;;;;;;4.25;4.25;;;;;25.19;53.47;101350.72;2384054;28;45362;-81
2022/08/03 07:00:16;;;;;;;;;4.25;3.50;;;;;25.21;52.96;101356.81;2384102;28;45441;-80
2022/08/03 07:01:26;;;;;;;;;4.00;4.00;;;;;25.24;52.96;101357.38;2373958;28;44604;-81
2022/08/03 07:02:38;;;;;;;;;3.00;3.00;;;;;25.28;52.71;101363.34;2376678;28;45449;-80
2022/08/03 07:03:48;;;;;;;;;4.25;4.25;;;;;25.31;52.43;101363.06;2373396;28;44745;-81
2022/08/03 07:04:59;;;;;;;;;4.75;4.75;;;;;25.33;52.44;101361.13;2376616;28;45496;-81
2022/08/03 07:06:09;;;;;;;;;7.75;5.75;;;;;25.35;52.98;101356.44;2379744;28;45500;-81
2022/08/03 07:07:20;;;;;;;;;8.25;6.00;;;;;25.36;52.20;101363.50;2374851;28;45269;-81
2022/08/03 07:08:30;;;;;;;;;4.00;4.00;;;;;25.37;52.54;101359.00;2375770;28;45271;-81
2022/08/03 07:09:40;;;;;;;;;6.00;4.00;;;;;25.40;52.39;101354.22;2380857;28;46273;-81
2022/08/03 07:10:51;;;;;;;;;6.50;5.00;;;;;25.44;51.92;101360.16;2373938;28;45309;-81
2022/08/03 07:12:03;;;;;;;;;7.00;5.00;;;;;25.47;52.22;101357.22;2376268;28;46604;-81
2022/08/03 07:13:13;;;;;;;;;8.00;6.00;;;;;25.52;52.00;101367.56;2383306;28;45285;-81
2022/08/03 07:14:23;;;;;;;;;5.50;4.00;;;;;25.54;52.12;101354.81;2383351;28;46300;-82
2022/08/03 07:15:34;;;;;;;;;3.00;3.00;;;;;25.57;51.43;101351.88;2384009;28;45245;-81
2022/08/03 07:16:44;;;;;;;;;6.00;4.75;;;;;25.61;52.12;101356.00;2383725;28;46726;-81
2022/08/03 07:17:55;;;;;;;;;5.50;5.00;;;;;25.63;51.99;101351.31;2380997;28;45520;-80
2022/08/03 07:19:05;;;;;;;;;6.25;5.00;;;;;25.66;51.62;101355.56;2378320;28;45505;-81
2022/08/03 07:20:17;;;;;;;;;7.00;4.75;;;;;25.66;52.29;101346.66;2377946;28;45548;-80
2022/08/03 07:21:27;;;;;;;;;5.00;4.50;;;;;25.69;51.85;101358.00;2381131;28;45417;-80
2022/08/03 07:22:37;;;;;;;;;5.75;5.25;;;;;25.72;51.48;101354.19;2377797;28;45509;-80
2022/08/03 07:23:48;;;;;;;;;5.00;4.50;;;;;25.74;51.86;101360.31;2372586;28;48242;-81
2022/08/03 07:24:59;;;;;;;;;5.25;4.25;;;;;25.73;51.21;101353.25;2376437;28;45498;-80
2022/08/03 07:26:10;;;;;;;;;5.25;3.75;;;;;25.73;51.45;101348.69;2383147;28;46792;-80
2022/08/03 07:27:21;;;;;;;;;5.50;4.00;;;;;25.76;51.45;101357.47;2374561;28;45228;-80
2022/08/03 07:28:31;;;;;;;;;4.00;4.00;;;;;25.76;51.27;101352.09;2379375;28;48059;-80
2022/08/03 07:29:42;;;;;;;;;4.00;4.00;;;;;25.78;51.72;101350.97;2383142;28;45260;-80
2022/08/03 07:30:52;;;;;;;;;6.00;6.00;;;;;25.81;51.79;101355.22;2373756;28;46479;-80
2022/08/03 07:32:04;;;;;;;;;7.00;5.25;;;;;25.82;51.20;101349.72;2376641;28;45329;-80
2022/08/03 07:33:14;;;;;;;;;7.25;5.50;;;;;25.85;50.83;101354.00;2383248;28;46418;-80
2022/08/03 07:34:25;;;;;;;;;4.00;4.00;;;;;25.89;51.23;101351.84;2379334;28;45516;-81
2022/08/03 07:35:35;;;;;;;;;6.75;5.25;;;;;25.90;51.44;101353.56;2382833;28;46377;-80
2022/08/03 07:36:45;;;;;;;;;4.50;4.25;;;;;25.94;51.10;101353.16;2383226;28;44796;-80
2022/08/03 07:37:56;;;;;;;;;5.75;4.00;;;;;25.98;50.43;101348.34;2383422;28;45513;-81
2022/08/03 07:39:06;;;;;;;;;5.50;4.00;;;;;26.01;50.50;101353.44;2383523;28;45227;-80
2022/08/03 07:40:17;;;;;;;;;7.00;5.00;;;;;26.05;50.69;101354.03;2382766;28;46271;-80
2022/08/03 07:41:27;;;;;;;;;5.00;5.00;;;;;26.06;50.60;101348.50;2383007;28;45875;-81
2022/08/03 07:42:37;;;;;;;;;4.50;3.25;;;;;26.09;50.22;101352.75;2383335;28;45584;-80
2022/08/03 07:43:48;;;;;;;;;6.00;5.00;;;;;26.13;50.31;101351.47;2383815;28;44717;-80
2022/08/03 07:44:58;;;;;;;;;5.00;5.00;;;;;26.16;50.31;101350.34;2383306;28;46293;-81
2022/08/03 07:46:09;;;;;;;;;4.00;4.00;;;;;26.18;50.33;101346.53;2383002;28;45271;-81
2022/08/03 07:47:22;;;;;;;;;5.25;5.25;;;;;26.21;50.21;101345.41;2381732;28;45468;-81
2022/08/03 07:48:33;;;;;;;;;7.50;4.25;;;;;26.25;50.21;101356.78;2380256;28;45510;-81
2022/08/03 07:49:43;;;;;;;;;9.25;6.75;;;;;26.24;49.75;101355.91;2383565;28;45365;-81
2022/08/03 07:50:54;;;;;;;;;5.75;5.00;;;;;26.28;49.57;101361.84;2383996;28;44658;-81
2022/08/03 07:53:33;;;;;;;;;9.00;6.25;;;;;26.34;49.93;101355.06;2380834;28;45256;-80
2022/08/03 07:54:43;;;;;;;;;6.00;4.50;;;;;26.37;49.71;101352.09;2385014;28;48590;-79
2022/08/03 07:55:54;;;;;;;;;5.25;5.25;;;;;26.38;49.79;101353.78;2385334;28;45163;-80
2022/08/03 07:57:04;;;;;;;;;3.25;3.25;;;;;26.39;49.69;101350.09;2374092;28;46241;-80
2022/08/03 07:58:16;;;;;;;;;7.75;5.50;;;;;26.41;49.64;101358.91;2373552;28;45367;-80
2022/08/03 07:59:26;;;;;;;;;4.50;4.50;;;;;26.43;49.74;101356.09;2378471;28;47221;-80
2022/08/03 08:00:37;;;;;;;;;5.00;4.00;;;;;26.44;49.62;101355.97;2384931;28;44744;-80
2022/08/03 08:01:47;;;;;;;;;3.00;3.00;;;;;26.47;49.52;101354.84;2385137;28;45306;-80
2022/08/03 08:02:58;;;;;;;;;6.00;3.75;;;;;26.48;49.22;101362.75;2374916;28;45474;-80
2022/08/03 08:04:08;;;;;;;;;5.00;5.00;;;;;26.51;49.30;101356.25;2377835;28;45446;-80
2022/08/03 08:05:19;;;;;;;;;5.00;3.50;;;;;26.53;48.62;101354.25;2385021;28;45327;-81
2022/08/03 08:06:31;;;;;;;;;4.25;4.25;;;;;26.52;48.63;101348.00;2385038;28;45414;-80
2022/08/03 08:07:41;;;;;;;;;6.00;5.00;;;;;26.56;48.92;101355.81;2374270;28;45211;-80
2022/08/03 08:08:52;;;;;;;;;4.75;4.75;;;;;26.57;48.60;101357.53;2377957;28;45481;-80
2022/08/03 08:10:04;;;;;;;;;6.00;5.00;;;;;26.57;49.25;101354.84;2374643;28;45254;-80
2022/08/03 08:11:15;;;;;;;;;6.25;5.00;;;;;26.61;48.80;101356.25;2375117;28;46831;-80
2022/08/03 08:12:25;;;;;;;;;7.00;4.50;;;;;26.61;48.51;101359.78;2381710;28;44685;-81
2022/08/03 08:13:38;;;;;;;;;6.25;5.00;;;;;26.65;48.88;101363.03;2384873;28;45278;-81
2022/08/03 08:14:48;;;;;;;;;4.50;4.00;;;;;26.67;48.58;101352.97;2384550;28;45262;-81
2022/08/03 08:15:59;;;;;;;;;5.25;5.25;;;;;26.69;48.45;101353.69;2384521;28;46229;-81
2022/08/03 08:17:09;;;;;;;;;6.00;5.00;;;;;26.71;48.11;101349.00;2383460;28;44641;-81
2022/08/03 08:18:20;;;;;;;;;5.00;4.50;;;;;26.73;48.30;101352.41;2375240;28;45230;-81
2022/08/03 08:19:30;;;;;;;;;6.25;4.00;;;;;26.79;48.38;101347.44;2379745;28;44806;-81
2022/08/03 08:20:40;;;;;;;;;5.75;4.50;;;;;26.82;49.04;101352.53;2374951;28;47223;-81
2022/08/03 08:21:51;;;;;;;;;5.00;4.00;;;;;26.85;48.09;101355.78;2384088;28;45259;-81
2022/08/03 08:23:03;;;;;;;;;5.00;4.75;;;;;26.88;47.86;101349.25;2384514;28;45260;-80
2022/08/03 08:24:13;;;;;;;;;5.50;4.00;;;;;26.93;48.58;101347.00;2385123;28;44610;-80
2022/08/03 08:25:25;;;;;;;;;6.25;3.25;;;;;26.95;47.57;101347.69;2375014;28;46205;-80
2022/08/03 08:26:36;;;;;;;;;6.00;4.00;;;;;27.00;48.42;101346.41;2377683;28;44743;-82
2022/08/03 08:27:48;;;;;;;;;5.00;4.00;;;;;27.04;47.84;101345.13;2384226;28;45481;-83
2022/08/03 08:28:58;;;;;;;;;5.00;3.00;;;;;27.06;47.38;101337.75;2374879;28;45453;-83
2022/08/03 08:30:10;;;;;;;;;5.00;5.00;;;;;27.08;47.50;101328.50;2377282;28;46364;-83
2022/08/03 08:31:20;;;;;;;;;6.50;5.00;;;;;27.14;47.05;101342.44;2385019;28;45216;-84
2022/08/03 08:32:31;;;;;;;;;5.50;4.75;;;;;27.14;46.23;101340.56;2384813;28;45348;-82
2022/08/03 08:33:41;;;;;;;;;6.75;6.75;;;;;27.15;47.01;101336.88;2383406;28;44759;-82
2022/08/03 08:34:52;;;;;;;;;6.50;6.25;;;;;27.19;47.07;101340.97;2382914;28;47998;-82
2022/08/03 08:36:02;;;;;;;;;6.75;6.00;;;;;27.23;47.42;101338.00;2381649;28;44756;-83
2022/08/03 08:37:12;;;;;;;;;5.25;4.25;;;;;27.27;47.02;101334.84;2374780;28;47042;-83
2022/08/03 08:38:23;;;;;;;;;5.75;5.00;;;;;27.35;47.13;101338.66;2365429;29;45372;-81
2022/08/03 08:39:33;;;;;;;;;6.50;5.75;;;;;27.38;46.93;101341.06;2376289;28;46545;-81
2022/08/03 08:40:44;;;;;;;;;5.50;5.50;;;;;27.42;46.48;101335.22;2384959;28;45240;-80
2022/08/03 08:41:54;;;;;;;;;5.25;3.75;;;;;27.46;47.14;101333.06;2374533;28;48215;-81
2022/08/03 08:43:06;;;;;;;;;4.00;3.25;;;;;27.51;46.78;101340.72;2368124;28;45477;-81
2022/08/03 08:44:16;;;;;;;;;4.00;4.00;;;;;27.54;46.41;101335.03;2377661;28;45454;-80
2022/08/03 08:45:27;;;;;;;;;6.00;4.50;;;;;27.56;46.33;101333.03;2384964;28;45350;-81
2022/08/03 08:46:37;;;;;;;;;5.25;4.25;;;;;27.58;46.49;101341.84;2374428;28;46978;-81
2022/08/03 08:47:49;;;;;;;;;5.75;5.75;;;;;27.60;46.16;101339.84;2377321;28;45462;-81
2022/08/03 08:48:59;;;;;;;;;6.25;5.00;;;;;27.62;46.60;101342.38;2384483;28;46446;-81
2022/08/03 08:50:11;;;;;;;;;5.25;4.25;;;;;27.61;46.47;101335.28;2384980;28;44697;-81
2022/08/03 08:51:26;;;;;;;;;4.75;3.75;;;;;27.61;46.30;101336.13;2384682;28;45284;-81
2022/08/03 08:52:39;;;;;;;;;7.75;5.50;;;;;27.62;45.81;101337.00;2383294;28;45228;-81
2022/08/03 08:53:51;;;;;;;;;5.25;4.75;;;;;27.60;46.21;101330.91;2383313;28;47244;-81
2022/08/03 08:55:05;;;;;;;;;4.00;4.00;;;;;27.60;45.87;101336.28;2384344;28;45372;-81
2022/08/03 08:56:17;;;;;;;;;5.00;4.50;;;;;27.60;46.35;101333.59;2380123;28;45493;-81
2022/08/03 08:57:43;;;;;;;;;5.50;5.25;;;;;27.60;46.09;101330.91;2383794;28;44812;-80
2022/08/03 08:58:58;;;;;;;;;5.00;5.00;;;;;27.60;46.27;101334.44;2384438;28;45517;-81
2022/08/03 09:00:12;;;;;;;;;6.50;5.75;;;;;27.61;45.82;101329.88;2374773;28;44752;-81
2022/08/03 09:01:23;;;;;;;;;10.00;5.00;;;;;27.61;45.93;101330.72;2377195;28;47121;-81
2022/08/03 09:02:34;;;;;;;;;6.50;3.75;;;;;27.62;46.07;101320.78;2365787;28;45442;-81
2022/08/03 09:03:45;;;;;;;;;7.75;5.00;;;;;27.63;45.93;101326.03;2372967;28;45262;-81
2022/08/03 09:04:56;;;;;;;;;4.50;4.50;;;;;27.64;45.31;101325.03;2388231;28;45377;-81
2022/08/03 09:06:07;;;;;;;;;6.25;4.25;;;;;27.66;45.84;101324.88;2384033;28;46500;-81
2022/08/03 09:07:17;;;;;;;;;3.50;3.50;;;;;27.68;45.81;101330.97;2384611;28;45358;-81
2022/08/03 09:08:29;;;;;;;;;4.25;4.25;;;;;27.70;45.69;101325.44;2384604;28;45278;-81
2022/08/03 09:09:41;;;;;;;;;4.25;4.25;;;;;27.70;45.73;101326.31;2384763;28;45184;-81
2022/08/03 09:10:51;;;;;;;;;3.75;3.75;;;;;27.71;45.32;101321.72;2384648;28;47000;-81
2022/08/03 09:12:02;;;;;;;;;5.50;4.25;;;;;27.72;45.61;101321.59;2383467;28;45451;-81
2022/08/03 09:13:13;;;;;;;;;4.50;4.00;;;;;27.73;45.42;101320.56;2384717;28;45971;-81
2022/08/03 09:14:24;;;;;;;;;4.75;4.50;;;;;27.74;45.46;101325.00;2384110;28;45275;-81
2022/08/03 09:15:36;;;;;;;;;5.25;5.00;;;;;27.74;45.39;101322.28;2383749;28;48185;-81
2022/08/03 09:17:01;;;;;;;;;5.00;5.00;;;;;27.74;45.26;101321.44;2374816;28;45263;-81
2022/08/03 09:18:14;;;;;;;;;6.00;4.75;;;;;27.74;45.43;101324.13;2379473;28;45498;-81
2022/08/03 09:19:24;;;;;;;;;5.00;4.00;;;;;27.72;45.58;101321.59;2384649;28;45281;-81
2022/08/03 09:20:35;;;;;;;;;5.75;5.00;;;;;27.72;45.52;101326.13;2383064;28;45456;-81
2022/08/03 09:22:07;;;;;;;;;6.50;5.00;;;;;27.69;45.27;101316.50;2382004;28;47124;-81
2022/08/03 09:23:17;;;;;;;;;4.50;4.00;;;;;27.68;45.34;101322.03;2377482;28;45454;-81
2022/08/03 09:24:28;;;;;;;;;4.00;4.00;;;;;27.67;45.44;101317.63;2384427;28;45350;-81
2022/08/03 09:25:40;;;;;;;;;6.00;6.00;;;;;27.67;45.79;101318.50;2383362;28;47853;-81
2022/08/03 09:26:52;;;;;;;;;6.75;4.00;;;;;27.66;45.06;101321.34;2374769;28;44626;-81
2022/08/03 09:28:16;;;;;;;;;3.75;3.75;;;;;27.64;45.20;101321.47;2381512;28;46123;-81
2022/08/03 09:29:31;;;;;;;;;5.25;5.00;;;;;27.63;45.23;101317.09;2384436;28;45277;-81
2022/08/03 09:30:44;;;;;;;;;7.25;7.25;;;;;27.62;45.25;101316.25;2383393;28;45473;-81
2022/08/03 09:32:01;;;;;;;;;5.00;4.00;;;;;27.59;45.29;101313.84;2384546;28;45239;-81
2022/08/03 09:33:15;;;;;;;;;3.50;3.50;;;;;27.57;45.27;101313.13;2383785;28;48046;-81
2022/08/03 09:34:27;;;;;;;;;4.75;4.50;;;;;27.55;45.22;101314.28;2374050;28;45254;-81
2022/08/03 09:35:42;;;;;;;;;4.00;4.00;;;;;27.53;44.06;101309.06;2380709;28;45543;-81
2022/08/03 09:36:53;;;;;;;;;4.50;4.00;;;;;27.53;44.93;101314.44;2374577;28;45426;-81
2022/08/03 09:38:25;;;;;;;;;4.25;3.25;;;;;27.53;45.31;101306.34;2377318;28;45568;-81
2022/08/03 09:39:36;;;;;;;;;5.50;4.50;;;;;27.51;45.23;101308.31;2383987;28;45273;-81
2022/08/03 09:40:46;;;;;;;;;4.00;3.00;;;;;27.51;45.50;101308.31;2383834;28;46446;-81
2022/08/03 09:42:04;;;;;;;;;7.75;4.00;;;;;27.54;45.07;101313.44;2384296;28;45360;-81
2022/08/03 09:43:15;;;;;;;;;3.00;3.00;;;;;27.53;45.41;101309.88;2373702;28;48032;-82
2022/08/03 09:44:34;;;;;;;;;5.00;4.25;;;;;27.55;45.27;101306.19;2377158;28;44753;-81
2022/08/03 09:45:45;;;;;;;;;5.50;4.25;;;;;27.56;45.26;101316.84;2384371;28;46330;-81
2022/08/03 09:46:55;;;;;;;;;6.00;4.00;;;;;27.55;44.91;101309.75;2384467;28;45308;-81
2022/08/03 09:48:33;;;;;;;;;6.00;5.00;;;;;27.54;45.25;101308.03;2373772;28;47270;-77
2022/08/03 09:50:03;;;;;;;;;3.50;3.00;;;;;27.54;44.52;101299.94;2380720;28;45168;-76
2022/08/03 09:51:17;;;;;;;;;4.00;4.00;;;;;27.55;45.09;101298.94;2384238;28;45510;-79
2022/08/03 09:52:36;;;;;;;;;2.75;2.75;;;;;27.57;45.15;101309.59;2384535;28;45259;-80
2022/08/03 09:53:46;;;;;;;;;3.25;3.25;;;;;27.57;45.17;101310.44;2384057;28;45427;-80
2022/08/03 09:54:59;;;;;;;;;5.00;5.00;;;;;27.59;44.38;101302.19;2384181;28;44858;-77
2022/08/03 09:56:09;;;;;;;;;5.00;2.00;;;;;27.59;44.58;101297.63;2384216;28;45521;-79
2022/08/03 09:57:24;;;;;;;;;4.75;4.75;;;;;27.62;44.12;101299.19;2373998;28;44687;-77
2022/08/03 09:58:45;;;;;;;;;3.00;3.00;;;;;27.68;44.23;101303.97;2375403;28;46312;-78
2022/08/03 10:00:23;;;;;;;;;5.25;4.00;;;;;27.72;44.64;101296.44;2375550;28;45243;-78
2022/08/03 10:01:34;;;;;;;;;4.50;4.25;;;;;27.77;44.34;101296.84;2380600;28;46318;-77
2022/08/03 10:02:45;;;;;;;;;3.00;3.00;;;;;27.78;44.18;101303.09;2382548;28;45445;-78
2022/08/03 10:03:58;;;;;;;;;5.25;5.25;;;;;27.78;43.98;101295.81;2383009;28;46871;-79
2022/08/03 10:05:11;;;;;;;;;4.00;4.00;;;;;27.81;43.90;101294.69;2379028;28;44796;-77
2022/08/03 10:06:22;;;;;;;;;4.25;4.25;;;;;27.82;43.70;101291.88;2383864;28;45191;-78
2022/08/03 10:07:51;;;;;;;;;3.00;3.00;;;;;27.84;44.25;101297.97;2384418;28;45239;-78
2022/08/03 10:09:09;;;;;;;;;3.25;3.25;;;;;27.85;44.21;101298.81;2384371;28;46332;-79
2022/08/03 10:10:20;;;;;;;;;6.00;5.00;;;;;27.85;44.26;101294.25;2384387;28;44704;-78
2022/08/03 10:11:31;;;;;;;;;4.00;3.50;;;;;27.86;44.18;101285.16;2384103;28;45419;-78
2022/08/03 10:12:43;;;;;;;;;4.25;4.25;;;;;27.84;44.09;101287.16;2384271;28;45236;-77
2022/08/03 10:13:53;;;;;;;;;6.00;6.00;;;;;27.82;43.66;101289.16;2383520;28;45334;-77
2022/08/03 10:15:05;;;;;;;;;3.00;3.00;;;;;27.81;43.73;101290.16;2379789;28;45168;-78
2022/08/03 10:16:15;;;;;;;;;5.25;4.00;;;;;27.82;43.27;101291.88;2375130;28;46680;-78
2022/08/03 10:17:25;;;;;;;;;6.00;5.25;;;;;27.85;43.69;101285.31;2384318;28;44683;-78
2022/08/03 10:18:36;;;;;;;;;4.75;3.25;;;;;27.85;43.46;101278.03;2383978;28;46089;-77
2022/08/03 10:19:48;;;;;;;;;5.00;5.00;;;;;27.88;44.07;101278.75;2374288;28;45327;-77
2022/08/03 10:21:06;;;;;;;;;4.00;4.00;;;;;27.87;43.77;101280.59;2367734;28;47336;-79
2022/08/03 10:22:26;;;;;;;;;5.25;4.75;;;;;27.85;43.51;101275.34;2368785;28;45374;-78
2022/08/03 10:23:38;;;;;;;;;4.75;4.75;;;;;27.88;43.70;101278.75;2374535;28;45480;-80
2022/08/03 10:24:55;;;;;;;;;4.00;4.00;;;;;27.86;43.97;101282.44;2375621;28;44685;-79
2022/08/03 10:26:07;;;;;;;;;3.75;3.25;;;;;27.85;43.59;101272.63;2381110;28;47256;-78
2022/08/03 10:27:19;;;;;;;;;4.00;4.00;;;;;27.85;43.50;101279.91;2374556;28;45252;-77
2022/08/03 10:28:38;;;;;;;;;5.50;4.00;;;;;27.88;43.90;101270.66;2382610;28;45520;-77
2022/08/03 10:29:53;;;;;;;;;3.50;3.50;;;;;27.91;43.74;101275.72;2384107;28;45323;-77
2022/08/03 10:31:06;;;;;;;;;3.25;3.25;;;;;27.94;43.47;101270.03;2383920;28;45541;-77
2022/08/03 10:32:41;;;;;;;;;5.00;4.00;;;;;27.98;43.77;101276.81;2375565;28;45246;-77